Latest Weather Observations for Butlers Gorge

IDT60801

Issued at 6:31 pm EST Wednesday 28 September 2016 (issued every 30 minutes, with the page automatically refreshed every 10 minutes)

About weather observations | Map of weather stations | Latest weather observations for TAS | Other Formats
Station Details ID: 096003 Name: BUTLERS GORGE Lat: -42.28 Lon: 146.28 Height: 667.0 m
Data from the previous 72 hours. | See also: Recent months at Butlers Gorge
Date/Time
EST
Temp
°C
App
Temp
°C
Dew
Point
°C
Rel
Hum
%
Delta-T
°C
Wind Press
QNH
hPa
Press
MSL
hPa
Rain since
9am
mm
Dir  Spd
km/h
Gust
km/h
Spd
kts
Gust
kts
28/06:30pm 9.2 5.9 -0.1 52 3.9 N 7 11 4 6 - - 0.0
28/06:00pm 10.3 6.7 0.6 51 4.1 N 9 15 5 8 - - 0.0
28/05:30pm 11.1 8.2 2.7 56 3.8 SE 7 15 4 8 - - 0.0
28/05:00pm 12.2 8.9 2.4 51 4.4 ESE 9 17 5 9 - - 0.0
28/04:30pm 12.2 8.0 1.8 49 4.6 ESE 13 20 7 11 - - 0.0
28/04:00pm 12.7 8.5 1.7 47 4.9 ESE 13 22 7 12 - - 0.0
28/03:30pm 12.6 9.2 1.6 47 4.9 SE 9 15 5 8 - - 0.0
28/03:00pm 13.8 9.5 -1.8 34 6.5 NNW 11 17 6 9 - - 0.0
28/02:30pm 13.7 9.6 -0.3 38 6.0 NNW 11 22 6 12 - - 0.0
28/02:00pm 13.9 10.0 -1.3 35 6.4 WNW 9 19 5 10 - - 0.0
28/01:30pm 12.9 8.1 -2.6 34 6.3 WNW 13 19 7 10 - - 0.0
28/01:00pm 12.4 7.6 -2.6 35 6.1 WNW 13 19 7 10 - - 0.0
28/12:30pm 11.6 7.9 0.1 45 4.9 WNW 9 19 5 10 - - 0.0
28/12:00pm 10.7 6.6 -0.4 46 4.6 WSW 11 17 6 9 - - 0.0
28/11:30am 10.2 6.9 0.0 49 4.3 SW 7 13 4 7 - - 0.0
28/11:00am 10.1 6.7 -0.7 47 4.5 SSE 7 15 4 8 - - 0.0
28/10:30am 10.1 6.9 0.7 52 4.0 NW 7 13 4 7 - - 0.0
28/10:00am 9.2 5.6 0.4 54 3.7 NNW 9 15 5 8 - - 0.0
28/09:30am 8.2 4.5 0.2 57 3.3 NW 9 15 5 8 - - 0.0
28/09:00am 7.4 4.2 1.0 64 2.7 WNW 7 17 4 9 - - 0.6
28/08:30am 7.5 4.5 2.2 69 2.3 NNW 7 15 4 8 - - 0.6
28/08:00am 6.6 3.2 1.9 72 2.0 NW 9 13 5 7 - - 0.6
28/07:30am 5.3 4.0 4.0 91 0.6 CALM 0 7 0 4 - - 0.6
28/07:00am 3.4 1.8 2.5 94 0.4 CALM 0 0 0 0 - - 0.6
28/06:30am 1.6 -0.3 0.7 94 0.4 CALM 0 0 0 0 - - 0.6
28/06:00am 2.0 0.2 1.0 93 0.4 CALM 0 6 0 3 - - 0.6
28/05:30am 3.0 0.6 2.0 93 0.4 WSW 4 7 2 4 - - 0.6
28/05:00am 4.0 2.5 2.8 92 0.5 CALM 0 6 0 3 - - 0.6
28/04:30am 4.5 2.6 3.0 90 0.6 W 2 7 1 4 - - 0.6
28/04:00am 4.6 2.0 3.3 91 0.6 SW 6 9 3 5 - - 0.6
28/03:30am 5.0 3.2 3.5 90 0.7 N 2 9 1 5 - - 0.6
28/03:00am 5.4 2.7 3.9 90 0.7 WNW 7 19 4 10 - - 0.4
28/02:30am 5.6 3.2 4.1 90 0.7 WSW 6 11 3 6 - - 0.4
28/02:00am 5.6 3.2 4.2 91 0.6 W 6 13 3 7 - - 0.4
28/01:30am 5.4 3.7 4.2 92 0.5 WSW 2 6 1 3 - - 0.4
28/01:00am 5.2 3.9 3.9 91 0.6 CALM 0 0 0 0 - - 0.2
28/12:30am 4.9 2.7 3.6 91 0.6 WSW 4 11 2 6 - - 0.2
28/12:00am 4.3 2.4 3.0 91 0.6 WSW 2 7 1 4 - - 0.2
 
Date/Time
EST
Temp
°C
App
Temp
°C
Dew
Point
°C
Rel
Hum
%
Delta-T
°C
Wind Press
QNH
hPa
Press
MSL
hPa
Rain since
9am
mm
Dir  Spd
km/h
Gust
km/h
Spd
kts
Gust
kts
27/11:30pm 3.8 1.8 2.5 91 0.5 WSW 2 7 1 4 - - 0.2
27/11:00pm 3.4 1.3 1.8 89 0.7 WSW 2 6 1 3 - - 0.2
27/10:30pm 4.7 1.5 2.9 88 0.8 NNW 9 13 5 7 - - 0.2
27/10:00pm 5.0 2.4 3.0 87 0.9 N 6 11 3 6 - - 0.2
27/09:30pm 5.8 3.2 3.0 82 1.2 W 6 15 3 8 - - 0.2
27/09:00pm 5.9 4.0 3.1 82 1.2 WNW 2 7 1 4 - - 0.2
27/08:30pm 7.0 4.5 3.6 79 1.5 W 6 11 3 6 - - 0.2
27/08:00pm 7.3 4.3 3.9 79 1.5 W 9 17 5 9 - - 0.2
27/07:30pm 7.3 4.6 3.7 78 1.6 WNW 7 13 4 7 - - 0.2
27/07:00pm 7.2 4.2 4.2 81 1.4 WSW 9 17 5 9 - - 0.2
27/06:30pm 7.5 4.6 4.8 83 1.2 WSW 9 17 5 9 - - 0.2
27/06:00pm 8.1 6.2 4.7 79 1.6 WSW 4 15 2 8 - - 0.2
27/05:30pm 8.9 5.6 4.7 75 1.9 WSW 11 22 6 12 - - 0.2
27/05:00pm 9.5 6.1 4.1 69 2.5 WSW 11 20 6 11 - - 0.2
27/04:30pm 10.4 7.0 3.9 64 3.0 W 11 22 6 12 - - 0.2
27/04:00pm 12.3 8.9 1.6 48 4.7 WNW 9 17 5 9 - - 0.2
27/03:30pm 12.0 8.5 1.1 47 4.8 SW 9 17 5 9 - - 0.2
27/03:00pm 13.3 9.8 1.3 44 5.3 W 9 15 5 8 - - 0.2
27/02:30pm 13.2 9.8 1.8 46 5.1 WNW 9 17 5 9 - - 0.2
27/02:00pm 13.2 10.1 1.2 44 5.3 WNW 7 15 4 8 - - 0.2
27/01:30pm 11.9 8.7 1.0 47 4.8 W 7 15 4 8 - - 0.2
27/01:00pm 12.9 9.8 1.3 45 5.1 NNE 7 15 4 8 - - 0.2
27/12:30pm 12.5 8.9 0.3 43 5.3 NW 9 17 5 9 - - 0.2
27/12:00pm 11.6 8.0 0.4 46 4.8 NNW 9 15 5 8 - - 0.2
27/11:30am 11.0 8.1 2.8 57 3.7 WSW 7 15 4 8 - - 0.2
27/11:00am 10.3 7.6 2.4 58 3.5 WNW 6 11 3 6 - - 0.0
27/10:30am 10.2 7.0 3.3 62 3.1 NNW 9 15 5 8 - - 0.0
27/10:00am 9.1 6.5 3.3 67 2.6 W 6 11 3 6 - - 0.0
27/09:30am 7.2 4.3 2.5 72 2.0 W 7 13 4 7 - - 0.0
27/09:00am 5.3 2.1 3.3 87 0.9 WSW 9 11 5 6 - - 2.2
27/08:30am 3.8 0.6 2.9 94 0.4 W 9 13 5 7 - - 2.2
27/08:00am 3.0 0.3 2.4 96 0.2 W 6 9 3 5 - - 2.2
27/07:30am 1.8 0.0 1.2 96 0.2 CALM 0 0 0 0 - - 2.2
27/07:00am 0.5 -2.6 -0.1 96 0.2 NE 6 7 3 4 - - 2.2
27/06:30am 0.6 -1.4 0.0 96 0.2 CALM 0 0 0 0 - - 2.2
27/06:00am 0.5 -1.5 -0.1 96 0.2 CALM 0 0 0 0 - - 2.2
27/05:30am 0.4 -1.6 -0.3 95 0.3 CALM 0 0 0 0 - - 2.2
27/05:00am 0.3 -1.7 -0.4 95 0.3 CALM 0 0 0 0 - - 2.2
27/04:30am 0.2 -1.9 -0.5 95 0.3 CALM 0 0 0 0 - - 2.2
27/04:00am -0.1 -2.2 -0.8 95 0.3 CALM 0 0 0 0 - - 2.2
27/03:30am -0.3 -2.4 -1.0 95 0.2 CALM 0 0 0 0 - - 2.2
27/03:00am -0.3 -2.4 -1.0 95 0.2 CALM 0 0 0 0 - - 2.2
27/02:30am -0.4 -2.5 -1.1 95 0.2 CALM 0 0 0 0 - - 2.2
27/02:00am -0.5 -2.7 -1.2 95 0.2 CALM 0 0 0 0 - - 2.2
27/01:30am -0.9 -3.5 -1.6 95 0.2 N 2 6 1 3 - - 2.2
27/01:00am -0.8 -3.0 -1.5 95 0.2 CALM 0 0 0 0 - - 2.2
27/12:30am -0.4 -2.5 -1.1 95 0.2 CALM 0 0 0 0 - - 2.2
27/12:00am -0.3 -2.4 -1.0 95 0.2 CALM 0 0 0 0 - - 2.2
 
Date/Time
EST
Temp
°C
App
Temp
°C
Dew
Point
°C
Rel
Hum
%
Delta-T
°C
Wind Press
QNH
hPa
Press
MSL
hPa
Rain since
9am
mm
Dir  Spd
km/h
Gust
km/h
Spd
kts
Gust
kts
26/11:30pm 0.0 -2.1 -0.7 95 0.3 CALM 0 6 0 3 - - 2.2
26/11:00pm 0.3 -1.8 -0.5 94 0.3 CALM 0 0 0 0 - - 2.2
26/10:30pm 0.8 -1.2 -0.1 94 0.3 CALM 0 0 0 0 - - 2.2
26/10:00pm 1.1 -0.9 0.2 94 0.3 CALM 0 0 0 0 - - 2.2
26/09:30pm 2.0 0.2 1.1 94 0.4 CALM 0 0 0 0 - - 2.2
26/09:00pm 2.8 1.1 1.9 94 0.4 CALM 0 0 0 0 - - 2.2
26/08:30pm 3.1 1.5 2.2 94 0.4 CALM 0 0 0 0 - - 2.2
26/08:00pm 3.1 1.5 2.2 94 0.4 CALM 0 0 0 0 - - 2.2
26/07:30pm 2.8 1.1 1.8 93 0.4 CALM 0 0 0 0 - - 2.2
26/07:00pm 3.7 2.1 2.7 93 0.4 CALM 0 0 0 0 - - 2.2
26/06:30pm 4.3 2.0 3.0 91 0.6 SW 4 6 2 3 - - 2.2
26/06:00pm 5.7 3.2 4.0 89 0.8 WSW 6 6 3 3 - - 2.2
26/05:30pm 6.5 4.9 4.3 86 1.0 SW 2 6 1 3 - - 2.2
26/05:00pm 7.0 3.8 3.3 77 1.6 N 9 15 5 8 - - 0.2
26/04:30pm 8.7 6.0 2.9 67 2.6 WSW 6 9 3 5 - - 0.2
26/04:00pm 7.8 4.6 3.3 73 2.0 SW 9 19 5 10 - - 0.2
26/03:30pm 7.2 2.9 3.3 76 1.7 WSW 15 22 8 12 - - 0.2
26/03:00pm 8.2 4.0 1.4 62 2.9 WNW 13 30 7 16 - - 0.0
26/02:30pm 10.8 7.1 -0.3 46 4.7 N 9 13 5 7 - - 0.0
26/02:00pm 10.5 6.9 0.5 50 4.3 N 9 17 5 9 - - 0.0
26/01:30pm 10.4 6.9 1.5 54 3.9 NNW 9 15 5 8 - - 0.0
26/01:00pm 10.6 7.0 0.9 51 4.2 WNW 9 17 5 9 - - 0.0
26/12:30pm 10.1 6.8 -0.1 49 4.3 NW 7 17 4 9 - - 0.0
26/12:00pm 8.5 4.4 0.0 55 3.5 NW 11 20 6 11 - - 0.0
26/11:30am 9.1 5.5 0.6 55 3.6 NNE 9 15 5 8 - - 0.0
26/11:00am 8.0 4.8 0.7 60 3.0 WSW 7 13 4 7 - - 0.0
26/10:30am 7.6 4.6 0.8 62 2.8 NNW 6 11 3 6 - - 0.0
26/10:00am 8.1 5.1 2.1 66 2.6 W 7 15 4 8 - - 0.0
26/09:30am 6.6 3.0 0.9 67 2.4 N 9 13 5 7 - - 0.0
26/09:00am 5.8 2.7 1.5 74 1.8 NNW 7 11 4 6 - - 1.4
26/08:30am 3.7 1.8 2.8 94 0.4 NE 2 7 1 4 - - 1.4
26/08:00am 1.9 0.1 1.2 95 0.3 CALM 0 0 0 0 - - 1.4
26/07:30am 0.3 -1.8 -0.5 94 0.3 CALM 0 0 0 0 - - 1.4
26/07:00am -0.4 -2.6 -1.2 94 0.3 CALM 0 0 0 0 - - 1.4
26/06:30am -1.6 -3.9 -2.4 94 0.2 CALM 0 0 0 0 - - 1.4
26/06:00am -2.0 -4.4 -2.8 94 0.2 CALM 0 0 0 0 - - 1.4
26/05:30am -1.7 -4.0 -2.5 94 0.2 CALM 0 0 0 0 - - 1.4
26/05:00am -1.4 -3.7 -2.2 94 0.2 CALM 0 0 0 0 - - 1.4
26/04:30am -1.2 -3.5 -2.0 94 0.2 CALM 0 0 0 0 - - 1.4
26/04:00am -1.3 -3.6 -2.3 93 0.3 CALM 0 0 0 0 - - 1.4
26/03:30am -0.9 -3.1 -1.9 93 0.3 CALM 0 0 0 0 - - 1.4
26/03:00am -0.8 -3.0 -1.8 93 0.3 CALM 0 0 0 0 - - 1.4
26/02:30am -0.2 -2.4 -1.3 92 0.4 CALM 0 0 0 0 - - 1.4
26/02:00am 0.7 -1.4 -0.6 91 0.5 CALM 0 0 0 0 - - 1.4
26/01:30am 1.3 -0.8 -0.5 88 0.7 CALM 0 6 0 3 - - 1.4
26/01:00am 2.5 -0.6 0.4 86 0.8 NW 6 7 3 4 - - 1.4
26/12:30am 2.6 -0.4 0.5 86 0.8 SSE 6 7 3 4 - - 1.4
26/12:00am 3.1 0.9 1.0 86 0.8 NNE 2 7 1 4 - - 1.4
 
Date/Time
EST
Temp
°C
App
Temp
°C
Dew
Point
°C
Rel
Hum
%
Delta-T
°C
Wind Press
QNH
hPa
Press
MSL
hPa
Rain since
9am
mm
Dir  Spd
km/h
Gust
km/h
Spd
kts
Gust
kts
25/11:30pm 3.5 0.0 1.2 85 0.9 N 9 17 5 9 - - 1.4
25/11:00pm 3.0 -0.5 1.2 88 0.7 W 9 11 5 6 - - 1.4
25/10:30pm 3.3 1.6 1.7 89 0.7 CALM 0 7 0 4 - - 1.4
25/10:00pm 3.6 0.8 1.8 88 0.7 NW 6 9 3 5 - - 1.4
25/09:30pm 3.7 1.3 1.9 88 0.7 NW 4 9 2 5 - - 1.4
25/09:00pm 3.0 0.9 1.7 91 0.5 W 2 6 1 3 - - 1.4
25/08:30pm 2.6 -0.4 1.0 89 0.6 S 6 9 3 5 - - 1.2
25/08:00pm 3.5 0.9 1.1 84 1.0 WNW 4 7 2 4 - - 1.2
25/07:30pm 4.5 1.3 0.8 77 1.5 W 7 13 4 7 - - 1.2
25/07:00pm 4.2 1.0 0.7 78 1.4 WSW 7 11 4 6 - - 1.2

Other Formats:

Comma delimited format used in spreadsheet applications
http://www.bom.gov.au/fwo/IDT60801/IDT60801.94959.axf

JavaScript Object Notation format (JSON) in row-major order
http://www.bom.gov.au/fwo/IDT60801/IDT60801.94959.json